createdAt,value
2022-11-16T00:00:16.455Z,294.50
2022-11-16T00:01:16.444Z,284.40
2022-11-16T00:02:16.545Z,289.90
2022-11-16T00:03:16.417Z,275.60
2022-11-16T00:04:16.441Z,277.40
2022-11-16T00:05:16.401Z,361.60
2022-11-16T00:06:16.397Z,371.40
2022-11-16T00:07:16.433Z,382.60
2022-11-16T00:08:16.361Z,381.00
2022-11-16T00:09:16.379Z,371.70
2022-11-16T00:10:16.339Z,376.30
2022-11-16T00:11:16.325Z,380.00
2022-11-16T00:12:16.341Z,375.30
2022-11-16T00:13:16.335Z,387.30
2022-11-16T00:14:16.338Z,386.70
2022-11-16T00:15:16.277Z,384.30
2022-11-16T00:16:16.264Z,368.80
2022-11-16T00:17:16.260Z,360.20
2022-11-16T00:18:16.249Z,368.10
2022-11-16T00:19:16.243Z,367.30
2022-11-16T00:20:16.272Z,382.50
2022-11-16T00:21:16.210Z,411.80
2022-11-16T00:22:16.213Z,406.50
2022-11-16T00:23:16.187Z,409.90
2022-11-16T00:24:16.182Z,411.80
2022-11-16T00:25:16.197Z,428.70
2022-11-16T00:26:16.163Z,428.90
2022-11-16T00:27:16.149Z,434.10
2022-11-16T00:28:16.133Z,431.50
2022-11-16T00:29:16.125Z,368.10
2022-11-16T00:30:16.149Z,337.90
2022-11-16T00:31:16.099Z,320.50
2022-11-16T00:32:16.086Z,422.60
2022-11-16T00:33:16.081Z,417.10
2022-11-16T00:34:16.071Z,369.50
2022-11-16T00:35:16.094Z,430.70
2022-11-16T00:36:16.049Z,453.50
2022-11-16T00:37:16.159Z,463.10
2022-11-16T00:38:16.022Z,481.50
2022-11-16T00:39:16.011Z,481.10
2022-11-16T00:40:16.039Z,496.70
2022-11-16T00:41:15.986Z,452.70
2022-11-16T00:42:15.981Z,433.80
2022-11-16T00:43:15.977Z,489.50
2022-11-16T00:44:15.955Z,489.30
2022-11-16T00:45:15.984Z,487.50
2022-11-16T00:46:15.930Z,486.20
2022-11-16T00:47:15.933Z,434.00
2022-11-16T00:48:15.901Z,274.40
2022-11-16T00:49:15.901Z,369.20
2022-11-16T00:50:15.916Z,360.00
2022-11-16T00:51:15.887Z,380.60
2022-11-16T00:52:15.848Z,253.60
2022-11-16T00:53:15.848Z,333.20
2022-11-16T00:54:15.856Z,258.60
2022-11-16T00:55:15.858Z,373.30
2022-11-16T00:56:15.803Z,445.70
2022-11-16T00:57:15.807Z,451.80
2022-11-16T00:58:15.800Z,507.30
2022-11-16T00:59:15.802Z,507.10
2022-11-16T01:00:15.840Z,515.60
2022-11-16T01:01:15.779Z,509.70
2022-11-16T01:02:15.751Z,517.70
2022-11-16T01:03:15.744Z,507.60
2022-11-16T01:04:15.732Z,508.10
2022-11-16T01:05:15.756Z,507.70
2022-11-16T01:06:15.713Z,507.10
2022-11-16T01:07:15.740Z,483.20
2022-11-16T01:08:15.695Z,470.30
2022-11-16T01:09:15.677Z,466.90
2022-11-16T01:10:15.688Z,445.00
2022-11-16T01:11:15.656Z,418.30
2022-11-16T01:12:15.652Z,401.70
2022-11-16T01:13:15.627Z,404.70
2022-11-16T01:14:15.623Z,361.70
2022-11-16T01:15:15.639Z,333.70
2022-11-16T01:16:15.614Z,331.80
2022-11-16T01:17:15.600Z,289.70
2022-11-16T01:18:15.577Z,296.70
2022-11-16T01:19:15.573Z,286.70
2022-11-16T01:20:15.591Z,266.90
2022-11-16T01:21:15.560Z,273.60
2022-11-16T01:22:15.517Z,273.30
2022-11-16T01:23:15.535Z,260.00
2022-11-16T01:24:15.511Z,269.40
2022-11-16T01:25:15.537Z,271.00
2022-11-16T01:26:15.493Z,279.70
2022-11-16T01:27:15.474Z,286.50
2022-11-16T01:28:15.470Z,287.10
2022-11-16T01:29:15.461Z,294.80
2022-11-16T01:30:15.462Z,284.70
2022-11-16T01:31:15.437Z,299.10
2022-11-16T01:32:15.451Z,304.10
2022-11-16T01:33:15.402Z,306.60
2022-11-16T01:34:15.388Z,322.50
2022-11-16T01:35:15.404Z,314.70
2022-11-16T01:36:15.358Z,320.90
2022-11-16T01:37:15.374Z,335.80
2022-11-16T01:38:15.348Z,331.20
2022-11-16T01:39:15.351Z,329.30
2022-11-16T01:40:15.352Z,338.00
2022-11-16T01:41:15.303Z,347.70
2022-11-16T01:42:15.311Z,340.20
2022-11-16T01:43:15.302Z,330.10
2022-11-16T01:44:15.286Z,345.30
2022-11-16T01:45:15.332Z,339.70
2022-11-16T01:46:15.290Z,339.00
2022-11-16T01:47:15.252Z,345.50
2022-11-16T01:48:15.328Z,354.30
2022-11-16T01:49:15.229Z,364.30
2022-11-16T01:50:15.254Z,356.90
2022-11-16T01:51:15.210Z,361.40
2022-11-16T01:52:15.196Z,361.40
2022-11-16T01:53:15.195Z,364.30
2022-11-16T01:54:15.167Z,370.90
2022-11-16T01:55:15.196Z,386.80
2022-11-16T01:56:15.145Z,393.20
2022-11-16T01:57:15.148Z,400.00
2022-11-16T01:58:15.126Z,398.60
2022-11-16T01:59:15.112Z,408.70
2022-11-16T02:00:15.128Z,411.80
2022-11-16T02:01:15.154Z,422.00
2022-11-16T02:02:15.111Z,401.40
2022-11-16T02:03:15.071Z,428.00
2022-11-16T02:04:15.069Z,412.70
2022-11-16T02:05:15.113Z,430.70
2022-11-16T02:06:15.051Z,427.90
2022-11-16T02:07:15.101Z,426.10
2022-11-16T02:08:15.004Z,419.20
2022-11-16T02:09:14.989Z,424.70
2022-11-16T02:10:15.026Z,441.10
2022-11-16T02:11:14.968Z,446.10
2022-11-16T02:12:14.950Z,452.00
2022-11-16T02:13:14.969Z,453.80
2022-11-16T02:14:14.946Z,457.90
2022-11-16T02:15:14.952Z,459.40
2022-11-16T02:16:14.949Z,461.60
2022-11-16T02:17:14.908Z,463.80
2022-11-16T02:18:14.937Z,457.20
2022-11-16T02:19:14.890Z,490.30
2022-11-16T02:20:14.895Z,482.50
2022-11-16T02:21:14.917Z,484.80
2022-11-16T02:22:14.876Z,493.80
2022-11-16T02:23:14.848Z,501.80
2022-11-16T02:24:14.826Z,499.80
2022-11-16T02:25:14.836Z,517.30
2022-11-16T02:26:14.850Z,510.00
2022-11-16T02:27:14.814Z,518.30
2022-11-16T02:28:14.789Z,508.80
2022-11-16T02:29:14.801Z,514.30
2022-11-16T02:30:14.774Z,532.90
2022-11-16T02:31:14.813Z,532.60
2022-11-16T02:32:14.770Z,531.90
2022-11-16T02:33:14.738Z,524.00
2022-11-16T02:34:14.721Z,542.30
2022-11-16T02:35:14.720Z,518.00
2022-11-16T02:36:14.733Z,519.90
2022-11-16T02:37:14.696Z,518.40
2022-11-16T02:38:14.682Z,521.60
2022-11-16T02:39:14.682Z,534.50
2022-11-16T02:40:14.640Z,541.40
2022-11-16T02:41:14.709Z,527.60
2022-11-16T02:42:14.629Z,533.50
2022-11-16T02:43:14.636Z,541.50
2022-11-16T02:44:14.617Z,543.60
2022-11-16T02:45:14.625Z,548.40
2022-11-16T02:46:14.611Z,539.90
2022-11-16T02:47:14.570Z,540.10
2022-11-16T02:48:14.543Z,543.70
2022-11-16T02:49:14.550Z,543.70
2022-11-16T02:50:14.551Z,532.90
2022-11-16T02:51:14.568Z,535.30
2022-11-16T02:52:14.543Z,543.60
2022-11-16T02:53:14.508Z,549.40
2022-11-16T02:54:14.506Z,547.00
2022-11-16T02:55:14.495Z,550.20
2022-11-16T02:56:14.515Z,543.00
2022-11-16T02:57:14.787Z,543.50
2022-11-16T02:58:14.468Z,531.00
2022-11-16T02:59:17.632Z,541.50
2022-11-16T03:00:14.425Z,508.30
2022-11-16T03:01:14.485Z,543.90
2022-11-16T03:02:14.422Z,559.90
2022-11-16T03:03:14.390Z,553.90
2022-11-16T03:04:14.378Z,527.20
2022-11-16T03:05:14.388Z,564.10
2022-11-16T03:06:14.411Z,555.30
2022-11-16T03:07:14.406Z,565.60
2022-11-16T03:08:14.356Z,552.60
2022-11-16T03:09:14.361Z,551.70
2022-11-16T03:10:14.321Z,558.70
2022-11-16T03:11:14.369Z,555.50
2022-11-16T03:12:14.304Z,545.10
2022-11-16T03:13:14.285Z,561.20
2022-11-16T03:14:14.289Z,571.30
2022-11-16T03:15:14.257Z,555.20
2022-11-16T03:16:14.275Z,540.90
2022-11-16T03:17:14.290Z,576.00
2022-11-16T03:18:14.289Z,552.40
2022-11-16T03:19:14.232Z,566.00
2022-11-16T03:20:14.208Z,550.00
2022-11-16T03:21:14.218Z,551.40
2022-11-16T03:22:14.210Z,561.30
2022-11-16T03:23:14.186Z,552.90
2022-11-16T03:24:14.167Z,571.80
2022-11-16T03:25:14.152Z,569.50
2022-11-16T03:26:14.156Z,564.00
2022-11-16T03:27:14.165Z,557.20
2022-11-16T03:28:14.128Z,379.00
2022-11-16T03:29:14.136Z,517.70
2022-11-16T03:30:14.111Z,156.10
2022-11-16T03:31:14.112Z,283.00
2022-11-16T03:32:14.110Z,134.50
2022-11-16T03:33:14.062Z,148.60
2022-11-16T03:34:14.064Z,339.70
2022-11-16T03:35:14.057Z,253.60
2022-11-16T03:36:14.040Z,182.10
2022-11-16T03:37:14.046Z,285.80
2022-11-16T03:38:14.020Z,238.20
2022-11-16T03:39:14.013Z,181.40
2022-11-16T03:40:14.003Z,207.90
2022-11-16T03:41:13.995Z,231.20
2022-11-16T03:42:14.015Z,210.50
2022-11-16T03:43:13.975Z,237.60
2022-11-16T03:44:13.949Z,265.10
2022-11-16T03:45:13.945Z,316.30
2022-11-16T03:46:13.922Z,217.50
2022-11-16T03:47:13.955Z,204.00
2022-11-16T03:48:13.899Z,219.50
2022-11-16T03:49:13.915Z,225.70
2022-11-16T03:50:13.884Z,241.60
2022-11-16T03:51:13.880Z,341.80
2022-11-16T03:52:13.881Z,459.10
2022-11-16T03:53:13.854Z,235.90
2022-11-16T03:54:13.842Z,219.20
2022-11-16T03:55:13.829Z,249.70
2022-11-16T03:56:13.827Z,247.90
2022-11-16T03:57:13.849Z,224.70
2022-11-16T03:58:13.779Z,222.20
2022-11-16T03:59:13.781Z,211.30
2022-11-16T04:00:13.765Z,229.90
2022-11-16T04:01:13.776Z,239.60
2022-11-16T04:02:13.785Z,344.00
2022-11-16T04:03:13.749Z,252.50
2022-11-16T04:04:13.759Z,218.90
2022-11-16T04:05:13.747Z,234.10
2022-11-16T04:06:13.702Z,210.40
2022-11-16T04:07:13.751Z,291.80
2022-11-16T04:08:13.679Z,293.50
2022-11-16T04:09:13.668Z,197.40
2022-11-16T04:10:13.670Z,432.00
2022-11-16T04:11:13.652Z,234.50
2022-11-16T04:12:13.669Z,429.70
2022-11-16T04:13:13.645Z,251.50
2022-11-16T04:14:13.623Z,227.10
2022-11-16T04:15:13.610Z,205.40
2022-11-16T04:16:13.574Z,222.90
2022-11-16T04:17:13.624Z,188.30
2022-11-16T04:18:13.556Z,230.80
2022-11-16T04:19:13.548Z,372.20
2022-11-16T04:20:13.543Z,346.70
2022-11-16T04:21:13.562Z,436.70
2022-11-16T04:22:13.593Z,181.10
2022-11-16T04:23:13.520Z,354.30
2022-11-16T04:24:13.534Z,198.40
2022-11-16T04:25:13.496Z,204.60
2022-11-16T04:26:13.489Z,216.70
2022-11-16T04:27:13.512Z,233.70
2022-11-16T04:28:13.491Z,341.20
2022-11-16T04:29:13.443Z,258.80
2022-11-16T04:30:13.423Z,341.10
2022-11-16T04:31:13.424Z,217.10
2022-11-16T04:32:13.459Z,191.30
2022-11-16T04:33:13.413Z,324.50
2022-11-16T04:34:13.369Z,196.00
2022-11-16T04:35:13.357Z,187.80
2022-11-16T04:36:17.865Z,227.10
2022-11-16T04:37:14.379Z,213.80
2022-11-16T04:38:13.347Z,190.20
2022-11-16T04:39:13.356Z,209.00
2022-11-16T04:40:13.327Z,215.40
2022-11-16T04:41:13.316Z,221.80
2022-11-16T04:42:13.291Z,332.60
2022-11-16T04:43:13.317Z,218.00
2022-11-16T04:44:13.261Z,214.00
2022-11-16T04:45:13.268Z,379.70
2022-11-16T04:46:13.243Z,379.10
2022-11-16T04:47:13.245Z,421.50
2022-11-16T04:48:13.269Z,404.30
2022-11-16T04:49:13.203Z,275.50
2022-11-16T04:50:13.232Z,429.00
2022-11-16T04:51:13.187Z,338.60
2022-11-16T04:52:13.163Z,221.00
2022-11-16T04:53:13.213Z,194.70
2022-11-16T04:54:13.142Z,182.80
2022-11-16T04:55:13.150Z,289.50
2022-11-16T04:56:13.122Z,297.40
2022-11-16T04:57:13.126Z,196.80
2022-11-16T04:58:13.148Z,289.70
2022-11-16T04:59:13.100Z,331.00
2022-11-16T05:00:13.083Z,200.40
2022-11-16T05:01:13.112Z,236.90
2022-11-16T05:02:13.072Z,276.10
2022-11-16T05:03:13.104Z,199.20
2022-11-16T05:04:13.053Z,230.30
2022-11-16T05:05:13.019Z,280.20
2022-11-16T05:06:13.039Z,241.50
2022-11-16T05:07:13.077Z,204.90
2022-11-16T05:08:12.987Z,234.20
2022-11-16T05:09:13.003Z,289.40
2022-11-16T05:10:12.978Z,293.00
2022-11-16T05:11:12.939Z,372.70
2022-11-16T05:12:12.950Z,382.20
2022-11-16T05:13:12.924Z,400.70
2022-11-16T05:14:12.970Z,411.00
2022-11-16T05:15:12.911Z,401.70
2022-11-16T05:16:12.908Z,410.40
2022-11-16T05:17:12.889Z,418.90
2022-11-16T05:18:12.891Z,407.50
2022-11-16T05:19:12.908Z,431.10
2022-11-16T05:20:12.880Z,416.00
2022-11-16T05:21:12.847Z,443.20
2022-11-16T05:22:12.837Z,428.30
2022-11-16T05:23:12.834Z,410.60
2022-11-16T05:24:12.870Z,447.20
2022-11-16T05:25:12.809Z,470.10
2022-11-16T05:26:12.810Z,442.30
2022-11-16T05:27:12.782Z,453.70
2022-11-16T05:28:12.779Z,436.00
2022-11-16T05:29:12.798Z,455.90
2022-11-16T05:30:12.767Z,449.60
2022-11-16T05:31:12.747Z,463.00
2022-11-16T05:32:12.737Z,478.80
2022-11-16T05:33:12.709Z,456.20
2022-11-16T05:34:12.749Z,448.50
2022-11-16T05:35:12.699Z,454.20
2022-11-16T05:36:12.712Z,452.80
2022-11-16T05:37:12.680Z,455.90
2022-11-16T05:38:12.656Z,436.30
2022-11-16T05:39:12.670Z,183.20
2022-11-16T05:40:12.637Z,419.90
2022-11-16T05:41:12.626Z,183.50
2022-11-16T05:42:12.615Z,303.10
2022-11-16T05:43:12.583Z,247.80
2022-11-16T05:44:12.652Z,289.80
2022-11-16T05:45:15.952Z,245.00
2022-11-16T05:46:13.581Z,396.60
2022-11-16T05:47:12.535Z,220.20
2022-11-16T05:48:12.531Z,327.10
2022-11-16T05:49:12.544Z,254.10
2022-11-16T05:50:12.514Z,170.00
2022-11-16T05:51:12.515Z,188.30
2022-11-16T05:52:12.496Z,331.30
2022-11-16T05:53:12.495Z,367.00
2022-11-16T05:54:12.505Z,337.70
2022-11-16T05:55:12.479Z,372.90
2022-11-16T05:56:12.503Z,237.70
2022-11-16T05:57:12.448Z,175.90
2022-11-16T05:58:12.440Z,178.00
2022-11-16T05:59:16.323Z,170.20
2022-11-16T06:00:12.420Z,237.10
2022-11-16T06:01:12.383Z,253.40
2022-11-16T06:02:12.400Z,333.90
2022-11-16T06:03:12.401Z,307.50
2022-11-16T06:04:12.395Z,180.60
2022-11-16T06:05:12.366Z,211.80
2022-11-16T06:06:12.331Z,195.00
2022-11-16T06:07:12.384Z,171.90
2022-11-16T06:08:12.314Z,311.40
2022-11-16T06:09:12.335Z,186.40
2022-11-16T06:10:12.292Z,316.90
2022-11-16T06:11:12.264Z,178.90
2022-11-16T06:12:12.286Z,222.80
2022-11-16T06:13:12.253Z,258.50
2022-11-16T06:14:12.276Z,261.40
2022-11-16T06:15:12.218Z,168.20
2022-11-16T06:16:12.228Z,324.60
2022-11-16T06:17:12.208Z,305.00
2022-11-16T06:18:12.211Z,227.60
2022-11-16T06:19:12.222Z,313.50
2022-11-16T06:20:12.178Z,343.90
2022-11-16T06:21:12.207Z,357.50
2022-11-16T06:22:12.140Z,367.00
2022-11-16T06:23:12.134Z,382.50
2022-11-16T06:24:12.158Z,378.70
2022-11-16T06:25:12.097Z,349.30
2022-11-16T06:26:12.123Z,381.90
2022-11-16T06:27:12.107Z,360.30
2022-11-16T06:28:12.101Z,380.50
2022-11-16T06:29:12.087Z,377.70
2022-11-16T06:30:12.116Z,379.40
2022-11-16T06:31:12.043Z,384.60
2022-11-16T06:32:12.051Z,380.30
2022-11-16T06:33:12.013Z,164.50
2022-11-16T06:34:12.018Z,185.80
2022-11-16T06:35:12.055Z,162.10
2022-11-16T06:36:12.016Z,173.00
2022-11-16T06:37:11.992Z,234.00
2022-11-16T06:38:11.979Z,288.10
2022-11-16T06:39:11.957Z,233.30
2022-11-16T06:40:11.979Z,226.70
2022-11-16T06:41:11.943Z,200.10
2022-11-16T06:42:11.937Z,297.60
2022-11-16T06:43:11.899Z,243.00
2022-11-16T06:44:11.919Z,318.50
2022-11-16T06:45:11.929Z,337.60
2022-11-16T06:46:11.883Z,169.80
2022-11-16T06:47:11.871Z,354.40
2022-11-16T06:48:11.860Z,146.40
2022-11-16T06:49:11.869Z,252.20
2022-11-16T06:50:11.878Z,303.50
2022-11-16T06:51:11.826Z,249.10
2022-11-16T06:52:11.816Z,289.70
2022-11-16T06:53:11.783Z,191.40
2022-11-16T06:54:11.796Z,349.00
2022-11-16T06:55:11.825Z,142.70
2022-11-16T06:56:11.777Z,178.40
2022-11-16T06:57:11.748Z,137.40
2022-11-16T06:58:11.727Z,141.40
2022-11-16T06:59:11.715Z,321.20
2022-11-16T07:00:11.772Z,272.00
2022-11-16T07:01:11.754Z,197.10
2022-11-16T07:02:11.743Z,344.70
2022-11-16T07:03:11.710Z,243.20
2022-11-16T07:04:11.663Z,367.90
2022-11-16T07:05:11.708Z,120.80
2022-11-16T07:06:11.642Z,337.60
2022-11-16T07:07:11.725Z,361.60
2022-11-16T07:08:11.638Z,354.30
2022-11-16T07:09:11.624Z,347.20
2022-11-16T07:10:11.638Z,335.10
2022-11-16T07:11:11.606Z,341.20
2022-11-16T07:12:11.609Z,354.20
2022-11-16T07:13:11.566Z,336.40
2022-11-16T07:14:11.582Z,341.20
2022-11-16T07:15:11.593Z,344.90
2022-11-16T07:16:11.560Z,363.10
2022-11-16T07:17:11.520Z,345.70
2022-11-16T07:18:11.511Z,341.80
2022-11-16T07:19:11.512Z,366.40
2022-11-16T07:20:11.528Z,395.60
2022-11-16T07:21:11.490Z,384.90
2022-11-16T07:22:11.483Z,392.50
2022-11-16T07:23:14.203Z,398.60
2022-11-16T07:24:11.464Z,400.90
2022-11-16T07:25:11.474Z,383.40
2022-11-16T07:26:11.745Z,412.60
2022-11-16T07:27:11.408Z,414.10
2022-11-16T07:28:11.416Z,420.60
2022-11-16T07:29:11.391Z,410.50
2022-11-16T07:30:11.420Z,406.40
2022-11-16T07:31:11.382Z,401.90
2022-11-16T07:32:11.378Z,423.80
2022-11-16T07:33:11.347Z,395.90
2022-11-16T07:34:11.460Z,400.80
2022-11-16T07:35:11.347Z,407.80
2022-11-16T07:36:11.300Z,408.10
2022-11-16T07:37:11.313Z,420.90
2022-11-16T07:38:15.419Z,419.90
2022-11-16T07:39:12.276Z,415.00
2022-11-16T07:40:11.325Z,408.20
2022-11-16T07:41:11.267Z,370.10
2022-11-16T07:42:11.262Z,413.50
2022-11-16T07:43:11.557Z,398.00
2022-11-16T07:44:12.381Z,393.00
2022-11-16T07:45:11.193Z,389.10
2022-11-16T07:47:12.199Z,413.00
2022-11-16T07:48:11.209Z,396.40
2022-11-16T07:49:11.692Z,401.80
2022-11-16T07:50:11.163Z,399.40
2022-11-16T07:51:11.199Z,407.60
2022-11-16T07:52:11.156Z,397.00
2022-11-16T07:53:11.137Z,401.60
2022-11-16T07:54:11.132Z,417.30
2022-11-16T07:55:11.114Z,395.50
2022-11-16T07:56:11.137Z,401.30
2022-11-16T07:57:11.091Z,390.70
2022-11-16T07:58:11.077Z,406.30
2022-11-16T07:59:11.056Z,407.20
2022-11-16T08:00:11.051Z,400.40
2022-11-16T08:01:11.072Z,408.50
2022-11-16T08:02:11.091Z,396.60
2022-11-16T08:03:10.998Z,390.10
2022-11-16T08:04:11.015Z,402.00
2022-11-16T08:05:10.991Z,384.80
2022-11-16T08:06:11.023Z,394.50
2022-11-16T08:07:11.029Z,405.90
2022-11-16T08:08:10.957Z,404.40
2022-11-16T08:09:10.923Z,383.60
2022-11-16T08:10:10.958Z,417.80
2022-11-16T08:11:10.955Z,398.90
2022-11-16T08:12:10.906Z,395.80
2022-11-16T08:13:10.912Z,386.20
2022-11-16T08:14:10.890Z,388.90
2022-11-16T08:15:10.855Z,395.40
2022-11-16T08:16:10.895Z,402.10
2022-11-16T08:17:10.857Z,397.30
2022-11-16T08:18:10.841Z,392.80
2022-11-16T08:19:10.834Z,388.80
2022-11-16T08:20:10.829Z,408.40
2022-11-16T08:21:10.855Z,396.30
2022-11-16T08:22:10.790Z,398.80
2022-11-16T08:23:10.813Z,418.00
2022-11-16T08:24:10.772Z,405.10
2022-11-16T08:25:10.793Z,418.60
2022-11-16T08:26:10.795Z,399.70
2022-11-16T08:27:10.740Z,286.80
2022-11-16T08:28:10.746Z,100.40
2022-11-16T08:29:10.757Z,173.30
2022-11-16T08:30:10.705Z,89.70
2022-11-16T08:31:10.735Z,213.00
2022-11-16T08:32:10.703Z,214.20
2022-11-16T08:33:10.715Z,238.80
2022-11-16T08:34:10.682Z,263.80
2022-11-16T08:35:10.663Z,228.40
2022-11-16T08:36:14.044Z,86.20
2022-11-16T08:37:10.629Z,120.60
2022-11-16T08:38:10.636Z,476.40
2022-11-16T08:39:10.617Z,80.80
2022-11-16T08:40:10.598Z,85.70
2022-11-16T08:41:10.621Z,509.80
2022-11-16T08:42:10.583Z,348.10
2022-11-16T08:43:10.602Z,343.10
2022-11-16T08:44:10.540Z,317.30
2022-11-16T08:45:10.530Z,88.20
2022-11-16T08:46:10.554Z,153.30
2022-11-16T08:47:10.501Z,484.20
2022-11-16T08:48:10.541Z,212.60
2022-11-16T08:49:10.471Z,444.60
2022-11-16T08:50:10.495Z,421.20
2022-11-16T08:51:17.359Z,333.70
2022-11-16T08:52:11.467Z,285.10
2022-11-16T08:53:10.462Z,353.00
2022-11-16T08:54:10.442Z,303.90
2022-11-16T08:55:10.436Z,103.10
2022-11-16T08:56:10.421Z,475.20
2022-11-16T08:57:10.465Z,102.30
2022-11-16T08:58:10.419Z,488.90
2022-11-16T08:59:10.409Z,96.00
2022-11-16T09:00:10.366Z,257.90
2022-11-16T09:01:10.362Z,441.40
2022-11-16T09:02:10.463Z,141.10
2022-11-16T09:03:10.348Z,419.50
2022-11-16T09:04:10.340Z,420.70
2022-11-16T09:05:10.313Z,161.50
2022-11-16T09:06:10.333Z,451.40
2022-11-16T09:07:10.424Z,161.90
2022-11-16T09:08:10.319Z,473.50
2022-11-16T09:09:10.277Z,289.10
2022-11-16T09:10:10.284Z,214.30
2022-11-16T09:11:10.243Z,201.40
2022-11-16T09:12:10.289Z,475.60
2022-11-16T09:13:10.225Z,486.90
2022-11-16T09:14:10.217Z,265.80
2022-11-16T09:15:10.183Z,105.40
2022-11-16T09:16:10.541Z,319.90
2022-11-16T09:17:10.212Z,360.10
2022-11-16T09:18:10.172Z,164.20
2022-11-16T09:19:10.155Z,236.50
2022-11-16T09:20:10.131Z,433.30
2022-11-16T09:21:10.138Z,264.90
2022-11-16T09:22:10.156Z,266.70
2022-11-16T09:23:10.114Z,349.30
2022-11-16T09:24:10.133Z,250.70
2022-11-16T09:25:10.107Z,455.80
2022-11-16T09:26:10.069Z,449.10
2022-11-16T09:27:10.115Z,201.20
2022-11-16T09:28:10.064Z,375.60
2022-11-16T09:29:10.045Z,387.50
2022-11-16T09:30:10.027Z,155.80
2022-11-16T09:31:10.041Z,175.70
2022-11-16T09:32:10.058Z,422.90
2022-11-16T09:33:10.017Z,287.10
2022-11-16T09:34:09.994Z,469.50
2022-11-16T09:35:09.961Z,453.30
2022-11-16T09:36:09.974Z,482.70
2022-11-16T09:37:10.015Z,478.80
2022-11-16T09:38:09.943Z,468.60
2022-11-16T09:39:29.470Z,351.20
2022-11-16T09:40:11.234Z,150.30
2022-11-16T09:41:09.912Z,136.50
2022-11-16T09:42:09.936Z,417.90
2022-11-16T09:43:09.897Z,101.40
2022-11-16T09:44:09.886Z,490.20
2022-11-16T09:45:10.191Z,220.80
2022-11-16T09:46:09.842Z,133.50
2022-11-16T09:47:09.894Z,462.40
2022-11-16T09:48:09.843Z,457.50
2022-11-16T09:49:17.154Z,459.10
2022-11-16T09:50:10.807Z,456.00
2022-11-16T09:51:09.794Z,485.50
2022-11-16T09:52:09.809Z,430.00
2022-11-16T09:53:09.841Z,444.20
2022-11-16T09:54:09.767Z,412.00
2022-11-16T09:55:15.853Z,450.00
2022-11-16T09:56:10.764Z,419.00
2022-11-16T09:57:12.583Z,470.00
2022-11-16T09:58:09.748Z,440.80
2022-11-16T09:59:15.084Z,442.80
2022-11-16T10:00:10.692Z,412.10
2022-11-16T10:01:09.755Z,421.70
2022-11-16T10:02:09.677Z,409.20
2022-11-16T10:03:09.690Z,426.40
2022-11-16T10:04:09.663Z,402.20
2022-11-16T10:05:09.654Z,396.80
2022-11-16T10:06:09.629Z,416.30
2022-11-16T10:07:09.689Z,431.10
2022-11-16T10:08:09.645Z,405.80
2022-11-16T10:09:09.633Z,418.60
2022-11-16T10:10:09.613Z,467.90
2022-11-16T10:11:09.581Z,426.50
2022-11-16T10:12:09.580Z,431.90
2022-11-16T10:13:09.597Z,440.00
2022-11-16T10:14:09.556Z,421.60
2022-11-16T10:15:09.556Z,474.30
2022-11-16T10:16:09.521Z,447.70
2022-11-16T10:17:09.506Z,428.60
2022-11-16T10:18:09.523Z,479.10
2022-11-16T10:19:09.503Z,484.00
2022-11-16T10:20:09.475Z,450.00
2022-11-16T10:21:09.541Z,499.20
2022-11-16T10:22:09.461Z,504.70
2022-11-16T10:23:09.487Z,541.70
2022-11-16T10:24:09.444Z,510.30
2022-11-16T10:25:09.412Z,226.90
2022-11-16T10:26:09.404Z,228.90
2022-11-16T10:27:09.417Z,282.80
2022-11-16T10:28:09.434Z,292.20
2022-11-16T10:29:09.377Z,396.20
2022-11-16T10:30:09.350Z,328.00
2022-11-16T10:31:09.350Z,223.40
2022-11-16T10:32:09.318Z,473.30
2022-11-16T10:33:11.268Z,313.20
2022-11-16T10:34:09.314Z,397.60
2022-11-16T10:35:09.303Z,189.80
2022-11-16T10:36:09.310Z,422.30
2022-11-16T10:37:09.304Z,275.20
2022-11-16T10:38:09.284Z,206.20
2022-11-16T10:39:09.297Z,225.30
2022-11-16T10:40:09.237Z,162.00
2022-11-16T10:41:09.236Z,413.00
2022-11-16T10:42:09.246Z,224.00
2022-11-16T10:43:09.222Z,183.40
2022-11-16T10:44:09.244Z,417.70
2022-11-16T10:45:09.210Z,273.50
2022-11-16T10:46:09.184Z,349.60
2022-11-16T10:47:09.181Z,365.30
2022-11-16T10:48:09.144Z,159.70
2022-11-16T10:49:09.168Z,443.40
2022-11-16T10:50:09.139Z,218.20
2022-11-16T10:51:09.140Z,290.00
2022-11-16T10:52:09.116Z,408.80
2022-11-16T10:53:09.125Z,283.50
2022-11-16T10:54:09.114Z,353.40
2022-11-16T10:55:09.080Z,372.80
2022-11-16T10:56:09.089Z,313.50
2022-11-16T10:57:09.063Z,158.50
2022-11-16T10:58:09.059Z,226.60
2022-11-16T10:59:09.080Z,365.40
2022-11-16T11:00:12.706Z,217.80
2022-11-16T11:01:10.088Z,150.50
2022-11-16T11:02:09.020Z,408.80
2022-11-16T11:03:09.002Z,152.50
2022-11-16T11:04:09.033Z,423.60
2022-11-16T11:05:08.978Z,454.50
2022-11-16T11:06:08.953Z,455.80
2022-11-16T11:07:08.964Z,467.50
2022-11-16T11:08:08.924Z,409.90
2022-11-16T11:09:08.937Z,470.00
2022-11-16T11:10:08.921Z,484.30
2022-11-16T11:11:08.897Z,472.80
2022-11-16T11:12:08.881Z,492.10
2022-11-16T11:13:08.883Z,489.00
2022-11-16T11:14:08.895Z,491.00
2022-11-16T11:15:08.864Z,502.60
2022-11-16T11:16:08.855Z,291.40
2022-11-16T11:17:08.842Z,321.20
2022-11-16T11:18:08.821Z,319.50
2022-11-16T11:19:08.845Z,242.30
2022-11-16T11:20:08.794Z,371.10
2022-11-16T11:21:08.790Z,215.20
2022-11-16T11:22:08.776Z,198.30
2022-11-16T11:23:08.761Z,185.10
2022-11-16T11:24:42.296Z,292.80
2022-11-16T11:25:09.727Z,386.50
2022-11-16T11:26:08.735Z,190.00
2022-11-16T11:27:08.705Z,340.40
2022-11-16T11:28:08.717Z,335.40
2022-11-16T11:29:08.730Z,237.30
2022-11-16T11:30:08.708Z,453.40
2022-11-16T11:31:08.691Z,208.50
2022-11-16T11:32:08.656Z,167.20
2022-11-16T11:33:08.660Z,234.60
2022-11-16T11:34:08.674Z,316.90
2022-11-16T11:35:08.638Z,156.80
2022-11-16T11:36:08.602Z,141.40
2022-11-16T11:37:08.635Z,406.00
2022-11-16T11:38:08.691Z,272.60
2022-11-16T11:39:08.693Z,242.50
2022-11-16T11:40:08.579Z,118.70
2022-11-16T11:41:08.560Z,335.00
2022-11-16T11:42:08.527Z,265.30
2022-11-16T11:43:08.530Z,424.90
2022-11-16T11:44:08.537Z,203.90
2022-11-16T11:45:08.513Z,176.80
2022-11-16T11:46:08.536Z,300.00
2022-11-16T11:48:09.472Z,270.50
2022-11-16T11:49:08.504Z,408.90
2022-11-16T11:50:08.512Z,131.30
2022-11-16T11:51:08.464Z,396.60
2022-11-16T11:52:08.431Z,167.30
2022-11-16T11:53:08.446Z,282.40
2022-11-16T11:54:08.418Z,283.10
2022-11-16T11:55:08.464Z,235.30
2022-11-16T11:56:08.389Z,155.20
2022-11-16T11:57:08.375Z,245.50
2022-11-16T11:58:08.388Z,372.60
2022-11-16T11:59:08.358Z,150.40
2022-11-16T12:00:08.374Z,332.80
2022-11-16T12:01:08.327Z,321.30
2022-11-16T12:02:08.321Z,387.90
2022-11-16T12:03:08.385Z,276.70
2022-11-16T12:04:08.287Z,177.60
2022-11-16T12:05:08.314Z,168.60
2022-11-16T12:06:08.271Z,383.80
2022-11-16T12:07:08.343Z,178.90
2022-11-16T12:08:08.240Z,171.40
2022-11-16T12:09:08.274Z,411.30
2022-11-16T12:10:08.269Z,125.20
2022-11-16T12:11:08.234Z,183.70
2022-11-16T12:12:11.882Z,249.70
2022-11-16T12:13:09.204Z,303.60
2022-11-16T12:14:08.185Z,413.20
2022-11-16T12:15:08.191Z,247.30
2022-11-16T12:16:08.189Z,151.60
2022-11-16T12:17:08.153Z,236.40
2022-11-16T12:18:08.132Z,407.60
2022-11-16T12:19:08.137Z,189.00
2022-11-16T12:20:08.124Z,328.90
2022-11-16T12:21:08.140Z,156.80
2022-11-16T12:22:08.102Z,115.70
2022-11-16T12:23:08.108Z,252.80
2022-11-16T12:24:08.116Z,226.90
2022-11-16T12:25:08.066Z,383.20
2022-11-16T12:26:08.065Z,218.90
2022-11-16T12:27:08.041Z,295.40
2022-11-16T12:28:08.028Z,339.20
2022-11-16T12:29:08.056Z,122.30
2022-11-16T12:30:08.014Z,317.20